createdAt,value
2023-04-19T00:00:35.604Z,90.35
2023-04-19T00:03:38.393Z,90.22
2023-04-19T00:06:42.191Z,89.98
2023-04-19T00:09:44.340Z,89.98
2023-04-19T00:12:46.464Z,89.91
2023-04-19T00:15:49.162Z,89.78
2023-04-19T00:18:51.239Z,89.68
2023-04-19T00:21:53.273Z,89.58
2023-04-19T00:24:55.542Z,89.70
2023-04-19T00:27:57.666Z,89.57
2023-04-19T00:30:59.673Z,89.58
2023-04-19T00:34:01.703Z,89.36
2023-04-19T00:37:06.869Z,89.32
2023-04-19T00:40:09.524Z,89.40
2023-04-19T00:43:11.602Z,89.39
2023-04-19T00:46:15.210Z,89.26
2023-04-19T00:49:20.336Z,89.33
2023-04-19T00:52:23.286Z,89.22
2023-04-19T00:55:25.317Z,89.28
2023-04-19T00:58:30.278Z,89.35
2023-04-19T01:01:32.623Z,89.48
2023-04-19T01:04:35.566Z,89.49
2023-04-19T01:07:37.719Z,89.41
2023-04-19T01:10:39.640Z,89.50
2023-04-19T01:13:41.804Z,89.55
2023-04-19T01:16:44.100Z,89.69
2023-04-19T01:19:46.672Z,89.91
2023-04-19T01:22:48.689Z,90.13
2023-04-19T01:25:50.623Z,90.37
2023-04-19T01:28:52.610Z,90.58
2023-04-19T01:31:55.933Z,90.69
2023-04-19T01:34:58.248Z,90.92
2023-04-19T01:38:01.120Z,91.06
2023-04-19T01:41:03.147Z,91.20
2023-04-19T01:44:05.029Z,91.35
2023-04-19T01:47:07.066Z,91.75
2023-04-19T01:50:09.569Z,92.05
2023-04-19T01:53:11.521Z,92.49
2023-04-19T01:56:13.354Z,92.67
2023-04-19T01:59:15.372Z,92.95
2023-04-19T02:02:17.408Z,93.42
2023-04-19T02:05:19.385Z,93.84
2023-04-19T02:08:21.519Z,93.97
2023-04-19T02:11:23.504Z,93.84
2023-04-19T02:14:25.505Z,94.18
2023-04-19T02:17:27.519Z,93.92
2023-04-19T02:20:29.538Z,94.12
2023-04-19T02:23:31.884Z,93.94
2023-04-19T02:26:33.894Z,94.04
2023-04-19T02:29:36.118Z,94.15
2023-04-19T02:32:38.082Z,94.18
2023-04-19T02:35:40.078Z,94.23
2023-04-19T02:38:42.333Z,94.51
2023-04-19T02:41:44.332Z,94.60
2023-04-19T02:44:46.290Z,94.66
2023-04-19T02:47:48.269Z,94.52
2023-04-19T02:50:50.562Z,94.36
2023-04-19T02:53:53.174Z,94.32
2023-04-19T02:56:55.133Z,94.33
2023-04-19T02:59:57.045Z,94.46
2023-04-19T03:02:59.394Z,94.29
2023-04-19T03:06:02.067Z,94.15
2023-04-19T03:09:04.093Z,94.15
2023-04-19T03:12:07.734Z,94.15
2023-04-19T03:15:10.593Z,94.22
2023-04-19T03:18:12.530Z,94.04
2023-04-19T03:21:14.448Z,94.20
2023-04-19T03:24:18.829Z,94.09
2023-04-19T03:27:20.787Z,94.06
2023-04-19T03:30:22.830Z,94.18
2023-04-19T03:33:24.855Z,94.28
2023-04-19T03:36:27.236Z,94.03
2023-04-19T03:39:29.181Z,94.25
2023-04-19T03:42:31.258Z,94.04
2023-04-19T03:45:33.188Z,94.08
2023-04-19T03:48:35.800Z,94.07
2023-04-19T03:51:37.807Z,94.39
2023-04-19T03:54:39.667Z,94.47
2023-04-19T03:57:41.696Z,94.60
2023-04-19T04:00:43.689Z,94.75
2023-04-19T04:03:45.965Z,94.75
2023-04-19T04:06:48.209Z,94.82
2023-04-19T04:09:50.755Z,94.87
2023-04-19T04:12:52.859Z,94.93
2023-04-19T04:15:54.792Z,95.03
2023-04-19T04:18:56.885Z,95.07
2023-04-19T04:21:58.906Z,95.06
2023-04-19T04:25:02.361Z,94.70
2023-04-19T04:28:05.031Z,94.64
2023-04-19T04:31:07.100Z,94.27
2023-04-19T04:34:12.476Z,93.99
2023-04-19T04:37:14.559Z,94.06
2023-04-19T04:40:16.800Z,93.87
2023-04-19T04:43:18.747Z,94.02
2023-04-19T04:46:21.091Z,93.90
2023-04-19T04:49:23.054Z,93.71
2023-04-19T04:52:25.549Z,93.41
2023-04-19T04:55:27.487Z,93.31
2023-04-19T04:58:29.462Z,93.04
2023-04-19T05:01:31.587Z,92.87
2023-04-19T05:04:33.812Z,92.66
2023-04-19T05:07:35.764Z,92.37
2023-04-19T05:10:37.807Z,92.16
2023-04-19T05:13:39.806Z,92.03
2023-04-19T05:16:41.679Z,91.62
2023-04-19T05:19:44.154Z,91.30
2023-04-19T05:22:46.301Z,90.73
2023-04-19T05:25:48.286Z,90.71
2023-04-19T05:28:50.350Z,89.92
2023-04-19T05:31:55.560Z,89.58
2023-04-19T05:34:57.582Z,89.22
2023-04-19T05:37:59.676Z,88.84
2023-04-19T05:41:02.986Z,88.25
2023-04-19T05:44:05.589Z,88.08
2023-04-19T05:47:07.524Z,87.28
2023-04-19T05:50:09.987Z,87.38
2023-04-19T05:53:12.310Z,87.23
2023-04-19T05:56:14.279Z,86.88
2023-04-19T05:59:16.758Z,86.76
2023-04-19T06:02:19.091Z,85.68
2023-04-19T06:05:21.961Z,85.73
2023-04-19T06:08:24.406Z,85.64
2023-04-19T06:11:34.605Z,86.08
2023-04-19T06:14:41.258Z,86.16
2023-04-19T06:17:43.285Z,86.22
2023-04-19T06:20:45.354Z,85.82
2023-04-19T06:23:47.448Z,85.83
2023-04-19T06:26:49.832Z,85.83
2023-04-19T06:29:51.881Z,86.00
2023-04-19T06:32:54.029Z,85.64
2023-04-19T06:35:55.967Z,85.94
2023-04-19T06:38:58.892Z,85.33
2023-04-19T06:42:02.466Z,84.98
2023-04-19T06:45:05.527Z,85.26
2023-04-19T06:48:07.452Z,84.28
2023-04-19T06:51:09.651Z,83.86
2023-04-19T06:54:12.222Z,83.28
2023-04-19T06:57:14.153Z,83.12
2023-04-19T07:00:16.513Z,82.98
2023-04-19T07:03:19.391Z,81.82
2023-04-19T07:06:21.359Z,80.99
2023-04-19T07:09:23.327Z,80.61
2023-04-19T07:12:25.341Z,79.77
2023-04-19T07:15:27.375Z,78.99
2023-04-19T07:18:29.313Z,78.14
2023-04-19T07:21:33.548Z,77.59
2023-04-19T07:24:35.602Z,77.20
2023-04-19T07:27:37.607Z,76.31
2023-04-19T07:30:39.600Z,75.40
2023-04-19T07:33:41.747Z,75.50
2023-04-19T07:36:43.748Z,75.09
2023-04-19T07:39:45.994Z,74.71
2023-04-19T07:42:47.906Z,72.49
2023-04-19T07:45:49.941Z,72.58
2023-04-19T07:48:52.117Z,71.09
2023-04-19T07:51:54.080Z,71.31
2023-04-19T07:54:56.827Z,72.35
2023-04-19T07:57:58.798Z,72.89
2023-04-19T08:01:01.448Z,73.98
2023-04-19T08:04:04.315Z,72.68
2023-04-19T08:07:07.002Z,72.26
2023-04-19T08:10:10.356Z,71.78
2023-04-19T08:13:12.341Z,71.26
2023-04-19T08:16:41.842Z,71.30
2023-04-19T08:19:36.165Z,71.07
2023-04-19T08:22:39.428Z,71.89
2023-04-19T08:25:41.596Z,70.53
2023-04-19T08:28:43.680Z,71.80
2023-04-19T08:31:46.711Z,71.14
2023-04-19T08:34:49.436Z,70.39
2023-04-19T08:37:51.544Z,70.80
2023-04-19T08:40:57.426Z,70.41
2023-04-19T08:44:01.250Z,70.06
2023-04-19T08:47:03.618Z,70.71
2023-04-19T08:50:17.289Z,70.20
2023-04-19T08:53:29.630Z,71.03
2023-04-19T08:56:35.742Z,71.09
2023-04-19T08:59:39.123Z,71.03
2023-04-19T09:02:52.784Z,71.12
2023-04-19T09:05:55.474Z,71.17
2023-04-19T09:09:33.308Z,71.10
2023-04-19T09:12:40.807Z,70.38
2023-04-19T09:15:44.822Z,70.58
2023-04-19T09:19:08.549Z,70.54
2023-04-19T09:22:20.717Z,70.33
2023-04-19T09:28:33.610Z,69.59
2023-04-19T09:31:50.777Z,70.11
2023-04-19T09:34:53.717Z,70.38
2023-04-19T09:38:06.264Z,72.84
2023-04-19T09:41:09.271Z,73.21
2023-04-19T09:47:30.153Z,74.19
2023-04-19T09:50:33.820Z,74.75
2023-04-19T09:53:40.823Z,75.59
2023-04-19T09:56:43.202Z,76.16
2023-04-19T09:59:45.158Z,76.62
2023-04-19T10:02:54.647Z,77.25
2023-04-19T10:05:57.924Z,78.15
2023-04-19T10:09:03.460Z,79.32
2023-04-19T10:12:30.591Z,80.79
2023-04-19T10:15:49.298Z,81.15
2023-04-19T10:18:54.084Z,81.39
2023-04-19T10:21:56.717Z,81.23
2023-04-19T10:25:13.261Z,82.01
2023-04-19T10:28:18.532Z,82.05
2023-04-19T10:31:23.931Z,81.43
2023-04-19T10:34:40.517Z,81.72
2023-04-19T10:38:02.928Z,82.29
2023-04-19T10:41:13.603Z,82.92
2023-04-19T10:44:17.875Z,82.23
2023-04-19T10:47:41.894Z,82.02
2023-04-19T10:51:00.007Z,81.88
2023-04-19T10:54:10.051Z,81.97
2023-04-19T10:57:12.085Z,81.98
2023-04-19T11:00:22.291Z,82.67
2023-04-19T11:03:46.484Z,83.39
2023-04-19T11:06:54.145Z,83.55
2023-04-19T11:09:56.134Z,84.05
2023-04-19T11:12:58.577Z,83.53
2023-04-19T11:16:00.557Z,83.54
2023-04-19T11:19:02.529Z,83.61
2023-04-19T11:22:04.981Z,82.18
2023-04-19T11:25:10.933Z,81.57
2023-04-19T11:28:17.659Z,79.59
2023-04-19T11:31:20.325Z,78.85
2023-04-19T11:34:23.685Z,78.70
2023-04-19T11:37:25.671Z,78.34
2023-04-19T11:40:27.742Z,76.93
2023-04-19T11:43:36.674Z,74.94
2023-04-19T11:46:38.685Z,75.10
2023-04-19T11:49:41.236Z,75.17
2023-04-19T11:52:49.358Z,76.82
2023-04-19T11:55:57.650Z,78.06
2023-04-19T11:58:59.604Z,79.04
2023-04-19T12:02:12.516Z,79.59
2023-04-19T12:05:16.011Z,79.82
2023-04-19T12:08:18.605Z,80.55
2023-04-19T12:11:24.486Z,80.08
2023-04-19T12:14:27.027Z,80.33
2023-04-19T12:17:29.125Z,79.71
2023-04-19T12:20:36.812Z,79.15
2023-04-19T12:23:38.894Z,78.67
2023-04-19T12:26:56.256Z,78.46
2023-04-19T12:29:58.563Z,78.04
2023-04-19T12:33:00.762Z,77.35
2023-04-19T12:36:02.848Z,77.59
2023-04-19T12:39:05.045Z,76.40
2023-04-19T12:42:07.017Z,75.02
2023-04-19T12:45:09.471Z,76.06
2023-04-19T12:48:11.712Z,76.77
2023-04-19T12:51:13.650Z,76.56
2023-04-19T12:54:16.161Z,76.71
2023-04-19T12:57:18.051Z,76.64
2023-04-19T13:00:20.197Z,76.88
2023-04-19T13:03:22.494Z,75.76
2023-04-19T13:06:25.024Z,75.62
2023-04-19T13:09:28.302Z,74.80
2023-04-19T13:12:30.343Z,73.12
2023-04-19T13:15:32.262Z,68.16
2023-04-19T13:18:34.347Z,64.84
2023-04-19T13:21:36.579Z,61.48
2023-04-19T13:24:38.944Z,63.33
2023-04-19T13:27:40.920Z,60.30
2023-04-19T13:30:42.964Z,61.31
2023-04-19T13:33:44.965Z,61.51
2023-04-19T13:36:47.700Z,60.81
2023-04-19T13:39:49.666Z,60.17
2023-04-19T13:42:51.696Z,59.58
2023-04-19T13:45:54.182Z,57.02
2023-04-19T13:48:56.356Z,55.53
2023-04-19T13:51:58.404Z,53.71
2023-04-19T13:55:00.706Z,56.98
2023-04-19T13:58:02.690Z,57.19
2023-04-19T14:01:04.791Z,58.90
2023-04-19T14:04:07.625Z,58.58
2023-04-19T14:07:10.059Z,57.07
2023-04-19T14:10:12.099Z,58.82
2023-04-19T14:13:14.878Z,59.47
2023-04-19T14:16:16.950Z,58.23
2023-04-19T14:19:18.961Z,55.02
2023-04-19T14:22:20.901Z,52.77
2023-04-19T14:25:22.895Z,50.79
2023-04-19T14:28:24.950Z,50.90
2023-04-19T14:31:27.192Z,50.19
2023-04-19T14:34:29.102Z,51.43
2023-04-19T14:37:31.107Z,51.87
2023-04-19T14:40:33.209Z,52.18
2023-04-19T14:43:35.301Z,54.51
2023-04-19T14:46:37.294Z,56.78
2023-04-19T14:49:39.297Z,58.19
2023-04-19T14:52:41.719Z,60.30
2023-04-19T14:55:43.611Z,59.70
2023-04-19T14:58:45.669Z,58.00
2023-04-19T15:01:48.445Z,57.44
2023-04-19T15:04:51.001Z,56.17
2023-04-19T15:07:53.242Z,56.55
2023-04-19T15:10:55.380Z,57.08
2023-04-19T15:13:57.620Z,57.67
2023-04-19T15:16:59.694Z,56.25
2023-04-19T15:20:02.153Z,55.72
2023-04-19T15:23:04.241Z,55.85
2023-04-19T15:26:06.732Z,55.44
2023-04-19T15:29:09.390Z,54.79
2023-04-19T15:32:11.321Z,54.79
2023-04-19T15:35:13.509Z,54.25
2023-04-19T15:38:15.460Z,54.11
2023-04-19T15:41:17.482Z,53.97
2023-04-19T15:44:19.816Z,53.25
2023-04-19T15:47:21.784Z,54.51
2023-04-19T15:50:23.908Z,54.56
2023-04-19T15:53:25.887Z,55.53
2023-04-19T15:56:27.833Z,57.33
2023-04-19T15:59:30.410Z,58.95
2023-04-19T16:02:34.104Z,59.78
2023-04-19T16:05:36.142Z,60.62
2023-04-19T16:08:39.059Z,61.28
2023-04-19T16:11:41.164Z,61.97
2023-04-19T16:14:43.101Z,62.06
2023-04-19T16:17:45.076Z,61.66
2023-04-19T16:20:47.173Z,61.30
2023-04-19T16:23:49.182Z,60.85
2023-04-19T16:26:51.095Z,59.97
2023-04-19T16:29:53.181Z,59.62
2023-04-19T16:32:56.005Z,60.19
2023-04-19T16:35:57.956Z,60.38
2023-04-19T16:39:00.908Z,61.01
2023-04-19T16:42:02.967Z,62.03
2023-04-19T16:45:06.781Z,62.36
2023-04-19T16:48:09.207Z,62.87
2023-04-19T16:51:11.608Z,62.75
2023-04-19T16:54:13.791Z,62.77
2023-04-19T16:57:16.272Z,63.04
2023-04-19T17:00:18.525Z,63.61
2023-04-19T17:03:20.824Z,64.44
2023-04-19T17:06:22.767Z,64.93
2023-04-19T17:09:24.911Z,65.73
2023-04-19T17:12:26.888Z,65.75
2023-04-19T17:15:29.047Z,65.88
2023-04-19T17:18:31.189Z,66.83
2023-04-19T17:21:41.003Z,66.68
2023-04-19T17:24:43.588Z,67.16
2023-04-19T17:27:45.946Z,67.79
2023-04-19T17:30:48.008Z,68.10
2023-04-19T17:33:50.049Z,68.96
2023-04-19T17:36:52.162Z,69.85
2023-04-19T17:39:54.709Z,70.25
2023-04-19T17:42:57.282Z,71.41
2023-04-19T17:45:59.816Z,71.68
2023-04-19T17:49:02.468Z,72.86
2023-04-19T17:52:05.302Z,72.49
2023-04-19T17:55:08.185Z,73.34
2023-04-19T17:58:10.769Z,73.96
2023-04-19T18:01:15.603Z,74.25
2023-04-19T18:04:20.480Z,74.79
2023-04-19T18:07:22.960Z,74.83
2023-04-19T18:10:25.839Z,74.90
2023-04-19T18:13:29.544Z,75.96
2023-04-19T18:16:33.472Z,76.43
2023-04-19T18:19:37.550Z,76.76
2023-04-19T18:22:40.609Z,77.39
2023-04-19T18:25:43.186Z,77.20
2023-04-19T18:28:45.863Z,78.09
2023-04-19T18:31:48.661Z,78.16
2023-04-19T18:34:52.986Z,78.62
2023-04-19T18:38:06.807Z,78.81
2023-04-19T18:41:20.101Z,78.57
2023-04-19T18:48:06.982Z,79.75
2023-04-19T18:51:17.116Z,79.78
2023-04-19T18:54:38.257Z,80.00
2023-04-19T18:57:55.781Z,80.06
2023-04-19T19:01:16.145Z,79.72
2023-04-19T19:04:58.344Z,80.48
2023-04-19T19:08:49.389Z,80.28
2023-04-19T19:12:17.884Z,81.31
2023-04-19T19:15:30.952Z,82.08
2023-04-19T19:18:37.318Z,82.57
2023-04-19T19:21:50.444Z,82.93
2023-04-19T19:24:58.062Z,83.18
2023-04-19T19:28:06.294Z,83.67
2023-04-19T19:31:12.323Z,84.06
2023-04-19T19:34:26.025Z,84.41
2023-04-19T19:37:31.344Z,84.25
2023-04-19T19:40:34.930Z,84.22
2023-04-19T19:43:37.817Z,83.53
2023-04-19T19:46:40.769Z,83.05
2023-04-19T19:50:09.713Z,82.63
2023-04-19T19:53:07.393Z,83.40
2023-04-19T19:56:18.326Z,83.97
2023-04-19T19:59:29.991Z,84.25
2023-04-19T20:02:35.216Z,84.53
2023-04-19T20:05:38.563Z,85.12
2023-04-19T20:08:45.524Z,85.33
2023-04-19T20:11:48.932Z,85.72
2023-04-19T20:14:51.469Z,85.58
2023-04-19T20:17:54.356Z,85.72
2023-04-19T20:20:58.406Z,85.96
2023-04-19T20:24:01.783Z,85.61
2023-04-19T20:27:04.739Z,85.61
2023-04-19T20:30:20.714Z,85.50
2023-04-19T20:33:24.192Z,85.51
2023-04-19T20:36:28.034Z,84.91
2023-04-19T20:39:31.459Z,85.06
2023-04-19T20:42:36.582Z,84.98
2023-04-19T20:45:39.227Z,84.90
2023-04-19T20:48:41.811Z,85.13
2023-04-19T20:51:44.465Z,85.11
2023-04-19T20:54:47.878Z,85.23
2023-04-19T20:57:50.771Z,85.80
2023-04-19T21:00:53.064Z,86.13
2023-04-19T21:03:55.780Z,86.42
2023-04-19T21:07:00.328Z,86.87
2023-04-19T21:10:03.217Z,86.97
2023-04-19T21:13:05.514Z,87.20
2023-04-19T21:16:07.834Z,87.64
2023-04-19T21:19:10.656Z,88.15
2023-04-19T21:22:12.917Z,88.49
2023-04-19T21:25:15.203Z,88.79
2023-04-19T21:28:17.605Z,89.06
2023-04-19T21:31:19.891Z,89.01
2023-04-19T21:34:22.187Z,89.07
2023-04-19T21:37:24.497Z,89.23
2023-04-19T21:40:27.367Z,89.26
2023-04-19T21:43:31.885Z,89.54
2023-04-19T21:46:35.196Z,89.54
2023-04-19T21:49:37.613Z,89.53
2023-04-19T21:52:39.984Z,89.82
2023-04-19T21:55:42.260Z,89.91
2023-04-19T21:58:44.438Z,89.96
2023-04-19T22:01:46.498Z,89.71
2023-04-19T22:04:49.209Z,89.61
2023-04-19T22:07:51.357Z,89.72
2023-04-19T22:10:53.676Z,89.26
2023-04-19T22:13:55.992Z,88.97
2023-04-19T22:16:59.913Z,89.09
2023-04-19T22:20:02.306Z,88.93
2023-04-19T22:23:04.518Z,88.80
2023-04-19T22:26:06.614Z,88.75
2023-04-19T22:29:08.593Z,88.49
2023-04-19T22:32:14.190Z,88.34
2023-04-19T22:35:16.461Z,88.15
2023-04-19T22:38:18.497Z,87.60
2023-04-19T22:41:20.468Z,87.62
2023-04-19T22:44:22.474Z,87.35
2023-04-19T22:47:24.513Z,87.26
2023-04-19T22:50:26.559Z,87.09
2023-04-19T22:53:28.527Z,86.94
2023-04-19T22:56:30.744Z,86.81
2023-04-19T22:59:32.706Z,86.63
2023-04-19T23:02:35.289Z,86.33
2023-04-19T23:05:37.531Z,86.29
2023-04-19T23:08:40.478Z,86.09
2023-04-19T23:11:42.944Z,86.17
2023-04-19T23:14:44.937Z,86.04
2023-04-19T23:17:47.136Z,85.94
2023-04-19T23:20:49.260Z,85.94
2023-04-19T23:23:51.721Z,85.88
2023-04-19T23:26:53.802Z,86.02
2023-04-19T23:29:55.717Z,85.82
2023-04-19T23:32:57.942Z,85.77
2023-04-19T23:36:00.041Z,85.71
2023-04-19T23:39:02.519Z,85.85
2023-04-19T23:42:04.658Z,85.80
2023-04-19T23:45:07.337Z,85.86
2023-04-19T23:48:09.341Z,85.88
2023-04-19T23:51:12.629Z,85.81
2023-04-19T23:54:15.195Z,85.97
2023-04-19T23:57:19.048Z,86.13
